Wild Boar Gully, Santa Catalina Island Weather observations

Data are for 10 minute period ending at time listed.
 Day   Time   Solar   Ave.   Ave.  Ave.  Vector    Max.   Stn.    Total
  of    of     Rad.   Air    Rel.  Wind   Wind     Wind   Baro.  Precip.
Year   Day            Temp.  Hum.  Speed  Dir.     Gust   Pres.         
2016   (PST)   W/m2    F      %     mph   deg.      mph    mb.     in.  
------------------------------------------------------------------------
 182   13:20  999.0   999  999.0   999    999.0   999.0    999.0 999.00  
 182   13:30  999.0   999  999.0   999    999.0   999.0    999.0 999.00  
 182   13:40  999.0   999  999.0   999    999.0   999.0    999.0 999.00  
 182   13:50  999.0   999  999.0   999    999.0   999.0    999.0 999.00  
 182   14:00  999.0   999  999.0   999    999.0   999.0    999.0 999.00  
 182   14:10  999.0   999  999.0   999    999.0   999.0    999.0 999.00  
 182   14:20  999.0   999  999.0   999    999.0   999.0    999.0 999.00  
 182   14:30  999.0   999  999.0   999    999.0   999.0    999.0 999.00  
 182   14:40  999.0   999  999.0   999    999.0   999.0    999.0 999.00  
 182   14:50  999.0   999  999.0   999    999.0   999.0    999.0 999.00  
 182   15:00  999.0   999  999.0   999    999.0   999.0    999.0 999.00  
 182   15:10  999.0   999  999.0   999    999.0   999.0    999.0 999.00  
 182   15:20  999.0   999  999.0   999    999.0   999.0    999.0 999.00  
 182   15:30  999.0   999  999.0   999    999.0   999.0    999.0 999.00  
 182   15:40  500.0    68   84.5    15    271.5    22.7    999.0   0.00  
 182   15:50  478.0    68   83.9    13    274.4    19.7    999.0   0.00  
 182   16:00  453.0    67   86.1    15    271.5    19.7    999.0   0.00  
 182   16:10  428.0    67   86.3    14    270.7    18.5    999.0   0.00  
 182   16:20  403.0    68   85.4    12    277.5    18.5    999.0   0.00  
 182   16:30  378.0    67   86.1    13    269.7    18.5    999.0   0.00  
 182   16:40  357.0    67   86.1    12    274.2    17.3    999.0   0.00  
 182   16:50  325.0    66   87.8    14    270.5    19.1    999.0   0.00  
 182   17:00  296.0    66   87.7    13    274.3    18.5    999.0   0.00  
 182   17:10  222.0    66   89.2    13    267.5    17.3    999.0   0.00  
 182   17:20  122.0    64   91.9    12    272.7    16.1    999.0   0.00  
 182   17:30   84.0    64   92.6    11    272.5    15.5    999.0   0.00  
 182   17:40   71.0    64   93.3    11    269.0    14.3    999.0   0.00  
 182   17:50   44.0    63   93.9    10    271.4    13.7    999.0   0.00  
 182   18:00   35.0    63   94.7    10    275.1    13.1    999.0   0.00  
 182   18:10   31.0    63   95.3     9    274.3    12.5    999.0   0.00  
 182   18:20   20.0    63   95.1     8    260.6    10.8    999.0   0.00  
 182   18:30   13.0    63   95.3     8    271.9    10.8    999.0   0.00  
 182   18:40   12.0    62   95.6     7    266.2    10.8    999.0   0.00  
 182   18:50    7.0    62   95.8     6    244.6     8.4    999.0   0.00  
 182   19:00    4.0    62   96.0     6    244.2     8.4    999.0   0.00  
 182   19:10    0.0    62   96.2     6    242.2     9.0    999.0   0.00  
 182   19:20    0.0    62   96.3     6    236.6     9.6    999.0   0.00  
 182   19:30    0.0    61   96.4     7    241.5     9.6    999.0   0.00  
 182   19:40    0.0    61   96.6     5    249.2     8.4    999.0   0.00  
 182   19:50    0.0    61   96.7     5    244.7     7.8    999.0   0.00  
 182   20:00    0.0    61   96.7     6    240.4     8.4    999.0   0.00  
 182   20:10    0.0    60   97.0     6    241.5     8.4    999.0   0.00  
 182   20:20    0.0    60   97.2     5    237.8     7.8    999.0   0.00  
 182   20:30    0.0    60   97.3     6    239.5     7.8    999.0   0.00  
 182   20:40    0.0    60   97.5     5    241.5     7.8    999.0   0.00  
 182   20:50    0.0    60   97.6     4    243.5     6.0    999.0   0.00  
 182   21:00    0.0    60   97.7     4    237.1     6.0    999.0   0.00  
 182   21:10    0.0    60   97.8     3    236.3     5.4    999.0   0.00  
 182   21:20    0.0    60   97.8     4    240.3     6.0    999.0   0.00  
 182   21:30    0.0    60   97.9     4    238.1     7.2    999.0   0.00  
 182   21:40    0.0    59   97.9     4    236.2     6.0    999.0   0.00  
 182   21:50    0.0    59   98.0     3    234.4     4.8    999.0   0.00  
 182   22:00    0.0    59   98.1     3    250.3     5.4    999.0   0.00  
 182   22:10    0.0    59   98.1     4    250.1     5.4    999.0   0.00  
 182   22:20    0.0    59   98.2     3    263.2     4.2    999.0   0.00  
 182   22:30    0.0    60   98.2     3    251.1     4.8    999.0   0.00  
 182   22:40    0.0    59   98.2     4    255.9     6.0    999.0   0.00  
 182   22:50    0.0    59   98.3     4    233.3     5.4    999.0   0.00  
 182   23:00    0.0    60   98.3     3    246.4     4.8    999.0   0.00  
 182   23:10    0.0    60   98.3     4    245.2     5.4    999.0   0.00  
 182   23:20    0.0    60   98.4     4    243.0     6.0    999.0   0.00  
 182   23:30    0.0    60   98.4     3    245.5     4.8    999.0   0.00  
 182   23:40    0.0    60   98.4     4    243.7     6.6    999.0   0.00  
 182   23:50    0.0    59   98.4     2    233.5     4.2    999.0   0.00  
 183    0:00    0.0    59   98.5     2    226.3     3.6    999.0   0.00  
 183    0:10    0.0    59   98.5     2    228.6     2.4    999.0   0.00  
 183    0:20    0.0    60   98.5     1    212.7     1.8    999.0   0.00  
 183    0:30    0.0    60   98.5     1    213.0     2.4    999.0   0.00  
 183    0:40    0.0    59   98.5     1    161.3     3.0    999.0   0.00  
 183    0:50    0.0    59   98.6     2    132.4     3.6    999.0   0.00  
 183    1:00    0.0    60   98.6     1    143.3     3.0    999.0   0.00  
 183    1:10    0.0    60   98.6     1    146.6     3.6    999.0   0.00  
 183    1:20    0.0    60   98.6     2    144.1     3.6    999.0   0.00  
 183    1:30    0.0    60   98.6     2    149.5     4.2    999.0   0.00  
 183    1:40    0.0    60   98.6     1    220.0     3.0    999.0   0.00  
 183    1:50    0.0    60   98.6     2    245.2     3.6    999.0   0.00  
 183    2:00    0.0    59   98.6     3    228.1     5.4    999.0   0.00  
 183    2:10    0.0    59   98.7     3    238.6     4.2    999.0   0.00  
 183    2:20    0.0    59   98.7     2    237.4     3.6    999.0   0.00  
 183    2:30    0.0    59   98.7     2    223.0     3.6    999.0   0.00  
 183    2:40    0.0    59   98.7     2    227.9     3.0    999.0   0.00  
 183    2:50    0.0    59   98.7     2    237.7     4.8    999.0   0.00  
 183    3:00    0.0    59   98.7     1    196.5     3.0    999.0   0.00  
 183    3:10    0.0    59   98.7     1    125.1     3.0    999.0   0.00  
 183    3:20    0.0    59   98.8     1     54.4     3.6    999.0   0.00  
 183    3:30    0.0    59   98.8     1     73.5     1.8    999.0   0.00  
 183    3:40    0.0    59   98.8     1    226.6     3.0    999.0   0.00  
 183    3:50    0.0    59   98.8     1    218.7     2.4    999.0   0.00  
 183    4:00    0.0    59   98.8     2    202.3     3.0    999.0   0.00  
 183    4:10    0.0    60   98.8     1    152.3     3.0    999.0   0.00  
 183    4:20    0.0    60   98.8     3     66.9     4.2    999.0   0.00  
 183    4:30    0.0    60   98.8     3     89.5     5.4    999.0   0.00  
 183    4:40    0.0    60   98.9     4     87.4     7.2    999.0   0.00  
 183    4:50    0.0    60   98.9     4    104.1     7.2    999.0   0.00  
 183    5:00    0.0    60   98.9     4    138.4     6.6    999.0   0.00  
 183    5:10    0.0    60   98.9     3    122.0     7.2    999.0   0.00  
 183    5:20    5.0    60   98.9     2    182.6     5.4    999.0   0.00  
 183    5:30    6.0    60   98.9     3    123.1     5.4    999.0   0.00  
 183    5:40    7.0    60   98.9     2    193.4     4.2    999.0   0.00  
 183    5:50   10.0    60   98.9     3    195.0     4.2    999.0   0.00  
 183    6:00   12.0    60   98.9     2    195.7     3.6    999.0   0.00  
 183    6:10  999.0   999  999.0   999    999.0   999.0    999.0 999.00  
 183    6:20   13.0    60   98.9     3    217.3     7.2    999.0   0.00  
 183    6:30   17.0    60   98.9     3    195.3     6.0    999.0   0.00  
 183    6:40   19.0    60   98.9     2    199.1     5.4    999.0   0.00  
 183    6:50   22.0    60   98.9     2    337.8     4.2    999.0   0.00  
 183    7:00   26.0    60   98.9     2    342.6     4.2    999.0   0.00  
 183    7:10   30.0    60   98.9     3    303.4     5.4    999.0   0.00  
 183    7:20   35.0    60   98.9     3     62.7     4.8    999.0   0.00  
 183    7:30   43.0    60   98.9     2    126.1     4.8    999.0   0.00  
 183    7:40   59.0    60   98.9     3    127.9     6.0    999.0   0.00  
 183    7:50   63.0    60   98.9     3    132.2     5.4    999.0   0.00  
 183    8:00   80.0    60   98.9     4    139.9     6.6    999.0   0.00  
 183    8:10   90.0    60   98.9     4    136.0     7.2    999.0   0.00  
 183    8:20   79.0    60   98.9     4    140.1     6.0    999.0   0.00  
 183    8:30   74.0    60   98.9     3    155.5     4.8    999.0   0.00  
 183    8:40  113.0    60   98.8     3    153.0     5.4    999.0   0.00  
 183    8:50  110.0    60   98.8     3    160.9     6.0    999.0   0.00  
 183    9:00  110.0    60   98.7     4    161.0     7.8    999.0   0.00  
 183    9:10  137.0    60   98.7     3    174.9     6.6    999.0   0.00  
 183    9:20  119.0    60   98.6     4    163.4     6.0    999.0   0.00  
 183    9:30  125.0    60   98.5     3    164.0     5.4    999.0   0.00  
 183    9:40  142.0    60   98.4     4    177.0     6.6    999.0   0.00  
 183    9:50  121.0    60   98.3     4    187.7     7.8    999.0   0.00  
 183   10:00  129.0    60   98.2     3    183.3     5.4    999.0   0.00  
 183   10:10  138.0    60   97.9     3    184.4     6.0    999.0   0.00  
 183   10:20  176.0    61   97.5     3    182.3     6.0    999.0   0.00  
 183   10:30  204.0    61   96.7     3    238.5     4.8    999.0   0.00  
 183   10:40  258.0    61   95.8     3    233.5     5.4    999.0   0.00  
 183   10:50  298.0    62   93.9     4    231.9     6.6    999.0   0.00  
 183   11:00  339.0    62   91.5     5    244.5     7.2    999.0   0.00  
 183   11:10  379.0    62   91.3     5    232.1     7.2    999.0   0.00  
 183   11:20  549.0    64   88.7     4    207.7     7.2    999.0   0.00  
 183   11:30  720.0    66   84.0     4    215.4     7.2    999.0   0.00  
 183   11:40  780.0    67   81.4     4    209.0     7.2    999.0   0.00  
 183   11:50  799.0    67   80.3     5    211.5     8.4    999.0   0.00  
 183   12:00  779.0    67   80.7     5    189.4     9.0    999.0   0.00  
 183   12:10  654.0    68   78.4     5    202.3     9.0    999.0   0.00  
 183   12:20  571.0    66   80.8     6    234.8    10.2    999.0   0.00  
 183   12:30  505.0    64   84.4     7    233.2     9.6    999.0   0.00  
 183   12:40  388.0    63   86.5     7    234.0    10.2    999.0   0.00  
 183   12:50  344.0    63   88.0     6    238.0     9.0    999.0   0.00  
 183   13:00  322.0    63   88.2     6    235.0     9.0    999.0   0.00  
 183   13:10  324.0    63   87.9     6    241.0     9.6    999.0   0.00  

Return to Wild Boar Gully graphs page.


Western Regional Climate Center,wrcc@dri.edu